Aeroporto :
LOGIN :

Iscrizione | Disclaimer

   EN    FR    IT 

 










Sommario :    VFR   VFR Marginale   IFR   IFR Intensivo   IFR Molto Intensivo
Visibilità : 
Base nubi : 
>= 8 km
>= 3000ft
5 / 8 km
1000 / 3000 ft
1500m / 5 km
500 / 1000 ft
800 / 1500m
200 / 500 ft
< 800m
< 200 ft
Simboli :   Temporali  Nebbia  Neve Forte  Precipitazioni Forti  Vento > 20 kt
SIGMETs :   Varie  Temporali  Ghiacco  Turbolenza  Onda orograficha  Ceneri Vulcaniche






- Altitudine del aeroporto : 56 ft
- Codice IATA : BZR


LFMU - Beziers / Vias

ULTIMO METAR :
  • 200700Z AUTO 02007KT CAVOK 02/02 Q1013 NOSIG

METARs OBSOLETI :
  • 200630Z AUTO VRB03KT CAVOK 02/01 Q1013 NOSIG
  • 200600Z AUTO VRB03KT CAVOK 02/01 Q1013 NOSIG
  • 200530Z AUTO 02006KT 9999 FEW049 03/02 Q1013 NOSIG
  • 200500Z AUTO 01006KT 9999 FEW049 02/02 Q1013 NOSIG
  • 200430Z AUTO 03004KT CAVOK 02/02 Q1013 NOSIG

TAF TAF LFMU
Valido dal 20 a 03 ore il 21 a 03 ore UTC


200200Z 2003/2103 02006KT CAVOK
BECMG 2008/2010 06010KT
BECMG 2015/2017 BKN040
BECMG 2019/2021 16013KT
ATIS : +33 4 67 90 88 88



MetMap, La meteo Aeronautica in un colpo d'occhio ! - Copyright ORBIFLY Dicembre 2007 - Disclaimer

ORBIFLY MET'MAP TEAM :

Programmazione e sviluppo : Alexandra Zaïnal
Concezione e sviluppo : Baudouin d'Aumeries
Co-Programmazione e sviluppo : Marc-Olivier Méhu
Supporto tecnico e logistico : Manuel Goepfert
Aiuto per la traduzione : Arnaldo La Scala

Contatto : metmap@orbifly.com




FONTI E CREDITI :

   NOAA